createdAt,value
2023-03-11T00:01:45.000Z,99.90
2023-03-11T00:04:16.814Z,99.90
2023-03-11T00:06:50.714Z,99.90
2023-03-11T00:09:24.836Z,99.90
2023-03-11T00:11:56.656Z,99.90
2023-03-11T00:14:28.604Z,99.90
2023-03-11T00:17:02.935Z,99.90
2023-03-11T00:19:34.770Z,99.90
2023-03-11T00:22:06.615Z,99.90
2023-03-11T00:24:38.463Z,99.90
2023-03-11T00:27:10.275Z,99.90
2023-03-11T00:29:42.273Z,99.90
2023-03-11T00:32:14.112Z,99.90
2023-03-11T00:34:46.481Z,99.90
2023-03-11T00:37:20.402Z,99.90
2023-03-11T00:39:52.239Z,99.90
2023-03-11T00:42:23.991Z,99.90
2023-03-11T00:44:55.834Z,99.90
2023-03-11T00:47:27.624Z,99.90
2023-03-11T00:49:59.503Z,99.90
2023-03-11T00:52:33.505Z,99.90
2023-03-11T00:55:08.474Z,99.90
2023-03-11T00:57:42.906Z,99.90
2023-03-11T01:00:19.236Z,99.90
2023-03-11T01:02:54.936Z,99.90
2023-03-11T01:05:31.063Z,99.90
2023-03-11T01:08:03.535Z,99.90
2023-03-11T01:10:36.298Z,99.90
2023-03-11T01:13:08.078Z,99.90
2023-03-11T01:15:40.558Z,99.90
2023-03-11T01:18:15.702Z,99.90
2023-03-11T01:20:50.486Z,99.90
2023-03-11T01:23:22.939Z,99.90
2023-03-11T01:25:54.924Z,99.90
2023-03-11T01:28:30.376Z,99.90
2023-03-11T01:31:02.480Z,99.90
2023-03-11T01:33:34.233Z,99.90
2023-03-11T01:36:06.553Z,99.90
2023-03-11T01:38:38.490Z,99.90
2023-03-11T01:41:11.486Z,99.90
2023-03-11T01:43:43.343Z,99.90
2023-03-11T01:46:15.261Z,99.90
2023-03-11T01:48:48.675Z,99.90
2023-03-11T01:51:46.135Z,99.90
2023-03-11T01:54:23.514Z,99.90
2023-03-11T01:56:55.690Z,99.90
2023-03-11T01:59:30.722Z,99.90
2023-03-11T02:02:06.933Z,99.90
2023-03-11T02:04:39.381Z,99.90
2023-03-11T02:07:11.811Z,99.90
2023-03-11T02:09:46.197Z,99.90
2023-03-11T02:12:18.019Z,99.90
2023-03-11T02:14:51.733Z,99.90
2023-03-11T02:17:24.041Z,99.90
2023-03-11T02:20:02.030Z,99.90
2023-03-11T02:22:34.734Z,99.90
2023-03-11T02:25:18.908Z,99.90
2023-03-11T02:27:52.596Z,99.90
2023-03-11T02:30:25.344Z,99.90
2023-03-11T02:32:57.648Z,99.90
2023-03-11T02:35:31.765Z,99.90
2023-03-11T02:38:04.079Z,99.90
2023-03-11T02:40:40.809Z,99.90
2023-03-11T02:43:14.641Z,99.90
2023-03-11T02:45:47.112Z,99.90
2023-03-11T02:48:19.023Z,99.90
2023-03-11T02:50:51.345Z,99.90
2023-03-11T02:53:23.364Z,99.90
2023-03-11T02:55:57.635Z,99.90
2023-03-11T02:58:31.741Z,99.90
2023-03-11T03:01:03.667Z,99.90
2023-03-11T03:03:35.548Z,99.90
2023-03-11T03:06:08.535Z,99.90
2023-03-11T03:08:40.404Z,99.90
2023-03-11T03:11:14.683Z,99.90
2023-03-11T03:13:46.574Z,99.90
2023-03-11T03:16:18.483Z,99.90
2023-03-11T03:18:50.366Z,99.90
2023-03-11T03:21:22.203Z,99.90
2023-03-11T03:23:54.082Z,99.90
2023-03-11T03:26:25.917Z,99.90
2023-03-11T03:28:57.764Z,99.90
2023-03-11T03:31:29.565Z,99.90
2023-03-11T03:34:01.400Z,99.90
2023-03-11T03:36:33.245Z,99.90
2023-03-11T03:39:07.652Z,99.90
2023-03-11T03:41:39.423Z,99.90
2023-03-11T03:44:13.666Z,99.90
2023-03-11T03:46:47.939Z,99.90
2023-03-11T03:49:19.753Z,99.90
2023-03-11T03:51:52.096Z,99.90
2023-03-11T03:54:24.125Z,99.90
2023-03-11T03:56:56.147Z,99.90
2023-03-11T03:59:30.640Z,99.90
2023-03-11T04:02:04.852Z,99.90
2023-03-11T04:04:36.742Z,99.90
2023-03-11T04:07:08.552Z,99.90
2023-03-11T04:09:43.357Z,99.90
2023-03-11T04:12:15.453Z,99.90
2023-03-11T04:14:47.277Z,99.90
2023-03-11T04:17:19.179Z,99.90
2023-03-11T04:19:51.000Z,99.90
2023-03-11T04:22:22.908Z,99.90
2023-03-11T04:24:54.726Z,99.90
2023-03-11T04:27:29.097Z,99.90
2023-03-11T04:30:01.008Z,99.90
2023-03-11T04:32:32.917Z,99.90
2023-03-11T04:35:05.413Z,99.90
2023-03-11T04:37:37.239Z,99.90
2023-03-11T04:40:11.156Z,99.90
2023-03-11T04:42:42.943Z,99.90
2023-03-11T04:45:14.985Z,99.90
2023-03-11T04:47:52.284Z,99.90
2023-03-11T04:50:24.157Z,99.90
2023-03-11T04:52:58.331Z,99.90
2023-03-11T04:55:33.383Z,99.90
2023-03-11T04:58:07.896Z,99.90
2023-03-11T05:00:39.755Z,99.90
2023-03-11T05:03:11.576Z,99.90
2023-03-11T05:05:44.439Z,99.90
2023-03-11T05:08:16.242Z,99.90
2023-03-11T05:10:48.070Z,99.90
2023-03-11T05:13:22.153Z,99.90
2023-03-11T05:15:54.106Z,99.90
2023-03-11T05:18:26.167Z,99.90
2023-03-11T05:21:00.505Z,99.90
2023-03-11T05:23:32.327Z,99.90
2023-03-11T05:26:04.315Z,99.90
2023-03-11T05:28:36.143Z,99.90
2023-03-11T05:31:11.166Z,99.90
2023-03-11T05:33:42.957Z,99.90
2023-03-11T05:36:14.830Z,99.90
2023-03-11T05:38:49.063Z,99.90
2023-03-11T05:41:20.937Z,99.90
2023-03-11T05:43:52.735Z,99.90
2023-03-11T05:46:24.606Z,99.90
2023-03-11T05:48:56.382Z,99.90
2023-03-11T05:51:31.155Z,99.90
2023-03-11T05:54:03.183Z,99.90
2023-03-11T05:56:35.016Z,99.90
2023-03-11T05:59:06.938Z,99.90
2023-03-11T06:01:39.469Z,99.90
2023-03-11T06:04:13.994Z,99.90
2023-03-11T06:06:45.882Z,99.90
2023-03-11T06:09:17.678Z,99.90
2023-03-11T06:11:49.475Z,99.90
2023-03-11T06:14:21.453Z,99.90
2023-03-11T06:16:53.312Z,99.90
2023-03-11T06:19:25.558Z,99.90
2023-03-11T06:21:57.398Z,99.90
2023-03-11T06:24:31.459Z,99.90
2023-03-11T06:27:03.381Z,99.90
2023-03-11T06:29:35.121Z,99.90
2023-03-11T06:32:09.894Z,99.90
2023-03-11T06:34:41.704Z,99.90
2023-03-11T06:37:13.508Z,99.90
2023-03-11T06:39:45.251Z,99.90
2023-03-11T06:42:17.188Z,99.90
2023-03-11T06:44:51.412Z,99.90
2023-03-11T06:47:23.248Z,99.90
2023-03-11T06:49:57.368Z,99.90
2023-03-11T06:52:29.326Z,99.90
2023-03-11T06:55:01.274Z,99.90
2023-03-11T06:57:35.437Z,99.90
2023-03-11T07:00:10.441Z,99.90
2023-03-11T07:02:42.495Z,99.90
2023-03-11T07:05:14.344Z,99.90
2023-03-11T07:07:48.874Z,99.90
2023-03-11T07:10:20.685Z,99.90
2023-03-11T07:12:54.876Z,99.90
2023-03-11T07:15:26.655Z,99.90
2023-03-11T07:17:59.292Z,99.90
2023-03-11T07:20:31.053Z,99.90
2023-03-11T07:23:02.846Z,99.90
2023-03-11T07:25:34.617Z,99.90
2023-03-11T07:28:06.371Z,99.90
2023-03-11T07:30:39.104Z,99.90
2023-03-11T07:33:10.865Z,99.90
2023-03-11T07:35:45.470Z,99.90
2023-03-11T07:38:17.991Z,99.90
2023-03-11T07:40:57.960Z,99.90
2023-03-11T07:43:34.079Z,99.90
2023-03-11T07:46:18.842Z,99.90
2023-03-11T07:48:53.266Z,99.90
2023-03-11T07:51:26.345Z,99.90
2023-03-11T07:54:00.768Z,99.90
2023-03-11T07:56:36.213Z,99.90
2023-03-11T07:59:10.111Z,99.90
2023-03-11T08:01:47.256Z,99.90
2023-03-11T08:04:19.133Z,99.90
2023-03-11T08:06:50.952Z,99.90
2023-03-11T08:09:22.990Z,99.90
2023-03-11T08:11:54.850Z,99.90
2023-03-11T08:14:26.822Z,99.90
2023-03-11T08:16:58.641Z,99.90
2023-03-11T08:19:32.788Z,99.90
2023-03-11T08:22:04.772Z,99.90
2023-03-11T08:24:36.606Z,99.90
2023-03-11T08:27:09.769Z,99.90
2023-03-11T08:29:41.557Z,99.90
2023-03-11T08:32:15.934Z,99.90
2023-03-11T08:34:49.896Z,99.90
2023-03-11T08:37:24.437Z,99.90
2023-03-11T08:39:56.340Z,99.90
2023-03-11T08:42:30.530Z,99.90
2023-03-11T08:45:02.421Z,99.90
2023-03-11T08:47:37.321Z,99.90
2023-03-11T08:50:13.162Z,99.90
2023-03-11T08:52:45.344Z,99.90
2023-03-11T08:55:18.752Z,99.90
2023-03-11T08:57:53.012Z,99.90
2023-03-11T09:00:24.953Z,99.90
2023-03-11T09:02:56.772Z,99.90
2023-03-11T09:05:28.709Z,99.90
2023-03-11T09:08:00.592Z,99.90
2023-03-11T09:10:32.583Z,99.90
2023-03-11T09:13:04.400Z,99.90
2023-03-11T09:15:36.564Z,99.90
2023-03-11T09:18:11.598Z,99.90
2023-03-11T09:20:43.650Z,99.90
2023-03-11T09:23:16.694Z,99.90
2023-03-11T09:25:49.244Z,99.90
2023-03-11T09:28:23.668Z,99.90
2023-03-11T09:30:55.602Z,99.90
2023-03-11T09:33:27.467Z,99.90
2023-03-11T09:35:59.428Z,99.90
2023-03-11T09:38:33.544Z,99.90
2023-03-11T09:41:14.492Z,99.90
2023-03-11T09:43:52.901Z,99.90
2023-03-11T09:46:47.753Z,99.90
2023-03-11T09:49:21.628Z,99.90
2023-03-11T09:52:05.792Z,99.90
2023-03-11T09:54:39.411Z,99.90
2023-03-11T09:57:14.538Z,99.90
2023-03-11T09:59:46.970Z,99.90
2023-03-11T10:02:20.290Z,99.90
2023-03-11T10:05:05.669Z,99.90
2023-03-11T10:07:43.895Z,99.90
2023-03-11T10:10:16.273Z,99.90
2023-03-11T10:13:08.278Z,99.90
2023-03-11T10:15:40.014Z,99.90
2023-03-11T10:18:11.762Z,99.90
2023-03-11T10:20:46.613Z,99.90
2023-03-11T10:23:22.197Z,99.90
2023-03-11T10:26:08.635Z,99.90
2023-03-11T10:28:46.875Z,99.90
2023-03-11T10:31:24.872Z,99.90
2023-03-11T10:33:58.463Z,99.90
2023-03-11T10:36:35.764Z,99.90
2023-03-11T10:39:13.166Z,99.90
2023-03-11T10:41:47.338Z,99.90
2023-03-11T10:44:31.237Z,99.90
2023-03-11T10:47:03.106Z,99.90
2023-03-11T10:49:34.976Z,99.90
2023-03-11T10:52:07.056Z,99.90
2023-03-11T10:54:46.528Z,99.90
2023-03-11T10:57:21.379Z,99.90
2023-03-11T10:59:54.298Z,99.90
2023-03-11T11:02:26.157Z,99.90
2023-03-11T11:05:16.420Z,99.90
2023-03-11T11:07:49.208Z,99.90
2023-03-11T11:10:22.425Z,99.90
2023-03-11T11:12:59.649Z,99.90
2023-03-11T11:15:33.105Z,99.90
2023-03-11T11:18:15.321Z,99.90
2023-03-11T11:21:01.011Z,99.90
2023-03-11T11:23:35.913Z,99.90
2023-03-11T11:26:30.143Z,99.90
2023-03-11T11:29:21.980Z,99.90
2023-03-11T11:32:10.225Z,99.90
2023-03-11T11:34:42.131Z,99.90
2023-03-11T11:37:14.817Z,99.90
2023-03-11T11:39:58.646Z,99.90
2023-03-11T11:42:31.219Z,99.90
2023-03-11T11:45:13.635Z,99.90
2023-03-11T11:47:48.468Z,99.90
2023-03-11T11:50:42.134Z,99.90
2023-03-11T11:53:13.938Z,99.90
2023-03-11T11:55:49.891Z,99.90
2023-03-11T11:58:22.436Z,99.90
2023-03-11T12:01:13.141Z,99.90
2023-03-11T12:04:03.855Z,99.90
2023-03-11T12:06:41.388Z,76.60
2023-03-11T12:09:15.046Z,43.40
2023-03-11T12:11:57.474Z,49.10
2023-03-11T12:14:48.234Z,59.90
2023-03-11T12:17:20.815Z,83.40
2023-03-11T12:20:08.763Z,99.90
2023-03-11T12:22:59.262Z,99.90
2023-03-11T12:25:34.689Z,99.90
2023-03-11T12:28:09.368Z,99.90
2023-03-11T12:30:46.308Z,99.90
2023-03-11T12:33:30.490Z,99.90
2023-03-11T12:36:05.007Z,99.90
2023-03-11T12:38:39.220Z,99.90
2023-03-11T12:41:13.988Z,99.90
2023-03-11T12:43:47.328Z,99.90
2023-03-11T12:46:19.231Z,99.90
2023-03-11T12:49:12.337Z,99.90
2023-03-11T12:52:01.494Z,99.90
2023-03-11T12:54:37.091Z,99.90
2023-03-11T12:57:18.580Z,99.90
2023-03-11T13:00:12.505Z,99.90
2023-03-11T13:03:01.719Z,99.90
2023-03-11T13:05:56.600Z,99.90
2023-03-11T13:08:32.053Z,99.90
2023-03-11T13:11:24.824Z,99.90
2023-03-11T13:14:15.023Z,99.90
2023-03-11T13:16:47.233Z,99.90
2023-03-11T13:19:32.234Z,99.90
2023-03-11T13:22:05.333Z,99.90
2023-03-11T13:24:37.130Z,99.90
2023-03-11T13:27:19.489Z,99.90
2023-03-11T13:30:00.232Z,99.90
2023-03-11T13:32:53.466Z,99.90
2023-03-11T13:35:37.460Z,99.90
2023-03-11T13:38:17.568Z,99.90
2023-03-11T13:40:52.654Z,99.90
2023-03-11T13:43:25.867Z,99.90
2023-03-11T13:46:16.223Z,99.90
2023-03-11T13:48:52.523Z,99.90
2023-03-11T13:51:27.400Z,99.90
2023-03-11T13:54:02.671Z,99.90
2023-03-11T13:56:39.645Z,99.90
2023-03-11T13:59:20.198Z,99.90
2023-03-11T14:01:55.372Z,99.90
2023-03-11T14:04:28.638Z,99.90
2023-03-11T14:07:01.044Z,93.10
2023-03-11T14:09:32.862Z,79.90
2023-03-11T14:12:05.345Z,95.40
2023-03-11T14:14:43.077Z,59.20
2023-03-11T14:17:19.276Z,51.70
2023-03-11T14:20:10.633Z,48.40
2023-03-11T14:22:49.790Z,52.90
2023-03-11T14:25:25.709Z,52.80
2023-03-11T14:27:59.168Z,55.60
2023-03-11T14:30:32.394Z,78.90
2023-03-11T14:33:05.720Z,92.10
2023-03-11T14:35:39.779Z,94.20
2023-03-11T14:38:20.777Z,99.90
2023-03-11T14:40:57.397Z,99.90
2023-03-11T14:43:32.433Z,99.90
2023-03-11T14:46:05.675Z,99.90
2023-03-11T14:48:39.283Z,99.90
2023-03-11T14:51:14.999Z,99.90
2023-03-11T14:53:50.081Z,99.90
2023-03-11T14:56:25.834Z,99.90
2023-03-11T14:59:08.851Z,99.90
2023-03-11T15:01:42.863Z,99.90
2023-03-11T15:04:23.756Z,99.90
2023-03-11T15:06:55.960Z,99.90
2023-03-11T15:09:28.014Z,99.90
2023-03-11T15:12:01.024Z,99.90
2023-03-11T15:14:34.357Z,99.90
2023-03-11T15:17:37.111Z,99.90
2023-03-11T15:20:32.991Z,99.90
2023-03-11T15:23:06.070Z,99.90
2023-03-11T15:25:38.852Z,99.90
2023-03-11T15:28:24.373Z,99.90
2023-03-11T15:31:18.136Z,99.90
2023-03-11T15:33:51.792Z,99.90
2023-03-11T15:36:33.894Z,99.90
2023-03-11T15:39:15.050Z,99.90
2023-03-11T15:42:07.065Z,99.90
2023-03-11T15:44:41.286Z,99.90
2023-03-11T15:47:20.985Z,99.90
2023-03-11T15:49:52.848Z,99.90
2023-03-11T15:52:24.739Z,99.90
2023-03-11T15:54:56.552Z,99.90
2023-03-11T15:57:29.588Z,99.90
2023-03-11T16:00:04.230Z,99.90
2023-03-11T16:02:36.051Z,99.90
2023-03-11T16:05:18.570Z,99.90
2023-03-11T16:07:52.609Z,99.90
2023-03-11T16:10:25.748Z,99.90
2023-03-11T16:12:57.616Z,99.90
2023-03-11T16:15:30.597Z,99.90
2023-03-11T16:18:04.186Z,99.90
2023-03-11T16:20:41.780Z,99.90
2023-03-11T16:23:19.234Z,99.90
2023-03-11T16:25:52.329Z,99.90
2023-03-11T16:28:24.206Z,99.90
2023-03-11T16:30:56.080Z,99.90
2023-03-11T16:33:30.246Z,99.90
2023-03-11T16:36:05.538Z,99.90
2023-03-11T16:38:43.188Z,99.90
2023-03-11T16:41:15.389Z,99.90
2023-03-11T16:43:49.316Z,99.90
2023-03-11T16:46:21.231Z,99.90
2023-03-11T16:48:54.248Z,99.90
2023-03-11T16:51:28.717Z,99.90
2023-03-11T16:54:00.596Z,99.90
2023-03-11T16:56:32.356Z,99.90
2023-03-11T16:59:04.406Z,99.90
2023-03-11T17:01:38.718Z,99.90
2023-03-11T17:04:10.637Z,99.90
2023-03-11T17:06:42.553Z,99.90
2023-03-11T17:09:17.197Z,99.90
2023-03-11T17:11:50.266Z,99.90
2023-03-11T17:14:27.011Z,99.90
2023-03-11T17:16:59.111Z,99.90
2023-03-11T17:19:33.224Z,99.90
2023-03-11T17:22:05.092Z,99.90
2023-03-11T17:24:37.396Z,99.90
2023-03-11T17:27:09.305Z,99.90
2023-03-11T17:29:41.094Z,99.90
2023-03-11T17:32:17.666Z,99.90
2023-03-11T17:34:49.692Z,99.90
2023-03-11T17:37:23.911Z,99.90
2023-03-11T17:39:55.837Z,99.90
2023-03-11T17:42:27.789Z,99.90
2023-03-11T17:44:59.753Z,99.90
2023-03-11T17:47:32.427Z,99.90
2023-03-11T17:50:04.920Z,99.90
2023-03-11T17:52:38.825Z,99.90
2023-03-11T17:55:10.674Z,99.90
2023-03-11T17:57:45.370Z,99.90
2023-03-11T18:00:17.870Z,99.90
2023-03-11T18:02:51.476Z,99.90
2023-03-11T18:05:23.380Z,99.90
2023-03-11T18:07:55.273Z,99.90
2023-03-11T18:10:27.059Z,99.90
2023-03-11T18:12:58.965Z,99.90
2023-03-11T18:15:30.725Z,99.90
2023-03-11T18:18:02.588Z,99.90
2023-03-11T18:20:36.592Z,99.90
2023-03-11T18:23:08.418Z,99.90
2023-03-11T18:25:42.366Z,99.90
2023-03-11T18:28:16.288Z,99.90
2023-03-11T18:30:48.072Z,99.90
2023-03-11T18:33:20.506Z,99.90
2023-03-11T18:35:53.415Z,99.90
2023-03-11T18:38:25.418Z,99.90
2023-03-11T18:40:58.011Z,99.90
2023-03-11T18:43:29.813Z,99.90
2023-03-11T18:46:01.930Z,99.90
2023-03-11T18:48:33.901Z,99.90
2023-03-11T18:51:07.138Z,99.90
2023-03-11T18:53:40.215Z,99.90
2023-03-11T18:56:14.761Z,99.90
2023-03-11T18:58:46.650Z,99.90
2023-03-11T19:01:20.093Z,99.90
2023-03-11T19:03:53.411Z,99.90
2023-03-11T19:06:26.562Z,99.90
2023-03-11T19:08:58.531Z,99.90
2023-03-11T19:11:31.396Z,99.90
2023-03-11T19:14:06.061Z,99.90
2023-03-11T19:16:37.993Z,99.90
2023-03-11T19:19:11.829Z,99.90
2023-03-11T19:21:45.863Z,99.90
2023-03-11T19:24:17.717Z,99.90
2023-03-11T19:26:51.818Z,99.90
2023-03-11T19:29:26.951Z,99.90
2023-03-11T19:32:01.667Z,99.90
2023-03-11T19:34:34.962Z,99.90
2023-03-11T19:37:06.732Z,99.90
2023-03-11T19:39:43.627Z,99.90
2023-03-11T19:42:15.458Z,99.90
2023-03-11T19:44:47.345Z,99.90
2023-03-11T19:47:19.165Z,99.90
2023-03-11T19:49:51.189Z,99.90
2023-03-11T19:52:23.437Z,99.90
2023-03-11T19:54:55.337Z,99.90
2023-03-11T19:57:27.275Z,99.90
2023-03-11T19:59:59.141Z,99.90
2023-03-11T20:02:32.234Z,99.90
2023-03-11T20:05:04.559Z,99.90
2023-03-11T20:07:36.516Z,99.90
2023-03-11T20:10:11.308Z,99.90
2023-03-11T20:12:59.703Z,99.90
2023-03-11T20:15:33.741Z,99.90
2023-03-11T20:18:06.831Z,99.90
2023-03-11T20:20:40.174Z,99.90
2023-03-11T20:23:12.570Z,99.90
2023-03-11T20:25:44.484Z,99.90
2023-03-11T20:28:16.391Z,99.90
2023-03-11T20:30:48.354Z,99.90
2023-03-11T20:33:20.191Z,99.90
2023-03-11T20:35:52.095Z,99.90
2023-03-11T20:38:23.984Z,99.90
2023-03-11T20:40:56.611Z,99.90
2023-03-11T20:43:28.593Z,99.90
2023-03-11T20:46:00.867Z,99.90
2023-03-11T20:48:32.744Z,99.90
2023-03-11T20:51:08.316Z,99.90
2023-03-11T20:53:40.950Z,99.90
2023-03-11T20:56:14.925Z,99.90
2023-03-11T20:58:51.275Z,99.90
2023-03-11T21:01:27.969Z,99.90
2023-03-11T21:04:01.043Z,99.90
2023-03-11T21:06:34.682Z,99.90
2023-03-11T21:09:14.285Z,99.90
2023-03-11T21:11:46.213Z,99.90
2023-03-11T21:14:18.354Z,99.90
2023-03-11T21:16:50.547Z,99.90
2023-03-11T21:19:27.149Z,99.90
2023-03-11T21:21:59.309Z,99.90
2023-03-11T21:24:31.128Z,99.90
2023-03-11T21:27:03.165Z,99.90
2023-03-11T21:29:37.740Z,99.90
2023-03-11T21:32:10.465Z,99.90
2023-03-11T21:34:42.518Z,99.90
2023-03-11T21:37:14.952Z,99.90
2023-03-11T21:39:49.368Z,99.90
2023-03-11T21:42:21.633Z,99.90
2023-03-11T21:44:53.685Z,99.90
2023-03-11T21:47:25.622Z,99.90
2023-03-11T21:49:57.478Z,99.90
2023-03-11T21:52:32.026Z,99.90
2023-03-11T21:55:05.294Z,99.90
2023-03-11T21:57:37.272Z,99.90
2023-03-11T22:00:12.103Z,99.90
2023-03-11T22:02:46.429Z,99.90
2023-03-11T22:05:18.483Z,99.90
2023-03-11T22:07:50.506Z,99.90
2023-03-11T22:10:22.530Z,99.90
2023-03-11T22:12:56.747Z,99.90
2023-03-11T22:15:28.540Z,99.90
2023-03-11T22:18:00.360Z,99.90
2023-03-11T22:20:34.505Z,99.90
2023-03-11T22:23:07.663Z,99.90
2023-03-11T22:25:39.767Z,99.90
2023-03-11T22:28:13.137Z,99.90
2023-03-11T22:30:44.999Z,99.90
2023-03-11T22:33:17.076Z,99.90
2023-03-11T22:35:55.604Z,99.90
2023-03-11T22:38:27.686Z,99.90
2023-03-11T22:41:00.489Z,99.90
2023-03-11T22:43:32.290Z,99.90
2023-03-11T22:46:04.932Z,99.90
2023-03-11T22:48:36.853Z,99.90
2023-03-11T22:51:08.796Z,99.90
2023-03-11T22:53:40.955Z,99.90
2023-03-11T22:56:16.039Z,99.90
2023-03-11T22:58:47.924Z,99.90
2023-03-11T23:01:19.787Z,99.90
2023-03-11T23:03:51.751Z,99.90
2023-03-11T23:06:23.652Z,99.90
2023-03-11T23:08:55.493Z,99.90
2023-03-11T23:11:27.295Z,99.90
2023-03-11T23:13:59.870Z,99.90
2023-03-11T23:16:32.197Z,99.90
2023-03-11T23:19:06.193Z,99.90
2023-03-11T23:21:38.533Z,99.90
2023-03-11T23:24:10.566Z,99.90
2023-03-11T23:26:42.373Z,99.90
2023-03-11T23:29:14.903Z,99.90
2023-03-11T23:31:46.702Z,99.90
2023-03-11T23:34:20.668Z,99.90
2023-03-11T23:36:52.473Z,99.90
2023-03-11T23:39:24.367Z,99.90
2023-03-11T23:41:56.597Z,99.90
2023-03-11T23:44:28.508Z,99.90
2023-03-11T23:47:00.384Z,99.90
2023-03-11T23:49:32.189Z,99.90
2023-03-11T23:52:04.117Z,99.90
2023-03-11T23:54:36.051Z,99.90
2023-03-11T23:57:10.352Z,99.90
2023-03-11T23:59:44.436Z,99.90
